createdAt,value
2022-10-22T00:01:45.649Z,100700.66
2022-10-22T00:04:12.419Z,100693.63
2022-10-22T00:06:39.045Z,100689.16
2022-10-22T00:09:05.892Z,100695.16
2022-10-22T00:11:32.552Z,100696.16
2022-10-22T00:13:59.251Z,100686.69
2022-10-22T00:16:26.076Z,100685.25
2022-10-22T00:18:52.606Z,100704.88
2022-10-22T00:21:19.231Z,100691.59
2022-10-22T00:23:45.757Z,100704.09
2022-10-22T00:26:12.582Z,100696.06
2022-10-22T00:28:39.856Z,100704.16
2022-10-22T00:31:07.281Z,100699.09
2022-10-22T00:33:34.646Z,100701.31
2022-10-22T00:36:01.265Z,100706.53
2022-10-22T00:38:28.045Z,100696.25
2022-10-22T00:40:55.481Z,100701.94
2022-10-22T00:43:22.147Z,100705.38
2022-10-22T00:45:48.804Z,100703.94
2022-10-22T00:48:29.715Z,100710.19
2022-10-22T00:50:59.551Z,100708.00
2022-10-22T00:53:35.098Z,100704.78
2022-10-22T00:56:02.181Z,100710.81
2022-10-22T00:58:33.146Z,100715.28
2022-10-22T01:00:59.920Z,100711.03
2022-10-22T01:03:26.548Z,100707.22
2022-10-22T01:05:59.407Z,100717.69
2022-10-22T01:08:25.847Z,100713.66
2022-10-22T01:11:15.916Z,100709.63
2022-10-22T01:14:03.078Z,100711.81
2022-10-22T01:16:41.451Z,100707.00
2022-10-22T01:19:36.536Z,100709.19
2022-10-22T01:22:19.017Z,100714.00
2022-10-22T01:24:49.118Z,100721.88
2022-10-22T01:27:24.788Z,100705.53
2022-10-22T01:29:56.701Z,100705.34
2022-10-22T01:32:26.004Z,100703.53
2022-10-22T01:34:58.813Z,100705.38
2022-10-22T01:38:07.247Z,100698.69
2022-10-22T01:41:25.168Z,100705.34
2022-10-22T01:43:52.006Z,100701.94
2022-10-22T01:46:20.880Z,100705.53
2022-10-22T01:49:04.879Z,100691.41
2022-10-22T01:52:19.616Z,100699.38
2022-10-22T01:54:56.965Z,100706.72
2022-10-22T01:57:43.392Z,100709.94
2022-10-22T02:00:14.465Z,100708.75
2022-10-22T02:03:03.423Z,100715.25
2022-10-22T02:05:50.230Z,100711.22
2022-10-22T02:08:30.927Z,100705.19
2022-10-22T02:10:59.568Z,100700.38
2022-10-22T02:13:30.465Z,100702.78
2022-10-22T02:15:58.593Z,100702.22
2022-10-22T02:18:30.269Z,100697.38
2022-10-22T02:20:58.867Z,100706.69
2022-10-22T02:23:26.351Z,100705.28
2022-10-22T02:26:00.407Z,100707.69
2022-10-22T02:28:50.673Z,100712.31
2022-10-22T02:31:25.950Z,100701.25
2022-10-22T02:33:56.847Z,100706.91
2022-10-22T02:36:25.403Z,100701.81
2022-10-22T02:38:52.584Z,100701.84
2022-10-22T02:41:20.413Z,100712.53
2022-10-22T02:43:54.663Z,100714.97
2022-10-22T02:46:22.351Z,100705.47
2022-10-22T02:48:49.000Z,100706.06
2022-10-22T02:51:15.682Z,100710.31
2022-10-22T02:53:42.227Z,100704.66
2022-10-22T02:56:08.851Z,100715.78
2022-10-22T02:58:35.389Z,100710.53
2022-10-22T03:01:02.069Z,100717.56
2022-10-22T03:03:28.777Z,100715.16
2022-10-22T03:05:55.362Z,100715.34
2022-10-22T03:08:22.208Z,100720.19
2022-10-22T03:10:48.837Z,100716.56
2022-10-22T03:13:15.399Z,100726.06
2022-10-22T03:15:41.937Z,100719.81
2022-10-22T03:18:08.828Z,100720.41
2022-10-22T03:20:35.718Z,100722.84
2022-10-22T03:23:03.386Z,100727.47
2022-10-22T03:25:34.361Z,100721.81
2022-10-22T03:28:04.723Z,100719.00
2022-10-22T03:30:31.826Z,100721.44
2022-10-22T03:32:58.511Z,100727.91
2022-10-22T03:35:25.841Z,100740.81
2022-10-22T03:37:52.682Z,100731.72
2022-10-22T03:40:20.232Z,100737.38
2022-10-22T03:42:47.274Z,100735.97
2022-10-22T03:45:13.824Z,100741.41
2022-10-22T03:47:40.817Z,100741.22
2022-10-22T03:50:08.482Z,100740.81
2022-10-22T03:52:39.657Z,100753.31
2022-10-22T03:55:08.911Z,100755.34
2022-10-22T03:57:36.749Z,100748.06
2022-10-22T04:00:05.943Z,100752.72
2022-10-22T04:02:32.418Z,100761.81
2022-10-22T04:04:58.982Z,100753.72
2022-10-22T04:07:25.692Z,100754.94
2022-10-22T04:09:52.222Z,100756.16
2022-10-22T04:12:18.771Z,100749.09
2022-10-22T04:14:45.314Z,100749.69
2022-10-22T04:17:11.935Z,100751.72
2022-10-22T04:19:38.597Z,100756.97
2022-10-22T04:22:05.134Z,100754.72
2022-10-22T04:24:32.189Z,100758.78
2022-10-22T04:26:59.142Z,100762.22
2022-10-22T04:29:26.062Z,100770.50
2022-10-22T04:31:52.636Z,100772.53
2022-10-22T04:34:19.250Z,100772.31
2022-10-22T04:36:45.861Z,100772.91
2022-10-22T04:39:12.541Z,100778.56
2022-10-22T04:41:39.667Z,100769.06
2022-10-22T04:44:06.725Z,100771.69
2022-10-22T04:46:35.155Z,100769.91
2022-10-22T04:49:04.134Z,100770.09
2022-10-22T04:51:30.997Z,100768.69
2022-10-22T04:53:57.712Z,100773.53
2022-10-22T04:56:30.099Z,100767.06
2022-10-22T04:58:59.426Z,100779.56
2022-10-22T05:01:31.942Z,100768.91
2022-10-22T05:04:00.693Z,100769.50
2022-10-22T05:06:28.900Z,100766.28
2022-10-22T05:08:59.053Z,100777.81
2022-10-22T05:11:31.660Z,100785.91
2022-10-22T05:13:59.746Z,100785.28
2022-10-22T05:16:27.566Z,100783.06
2022-10-22T05:18:54.790Z,100795.59
2022-10-22T05:21:21.776Z,100785.47
2022-10-22T05:23:49.776Z,100801.44
2022-10-22T05:26:19.068Z,100794.34
2022-10-22T05:28:48.445Z,100797.19
2022-10-22T05:31:17.014Z,100796.19
2022-10-22T05:33:44.474Z,100796.81
2022-10-22T05:36:15.108Z,100806.69
2022-10-22T05:38:41.766Z,100807.13
2022-10-22T05:41:11.101Z,100807.69
2022-10-22T05:43:38.937Z,100808.72
2022-10-22T05:46:08.654Z,100811.16
2022-10-22T05:48:35.485Z,100807.06
2022-10-22T05:51:05.659Z,100822.63
2022-10-22T05:53:37.448Z,100816.94
2022-10-22T05:56:07.444Z,100822.41
2022-10-22T05:58:34.975Z,100822.00
2022-10-22T06:01:16.242Z,100826.81
2022-10-22T06:03:43.819Z,100826.03
2022-10-22T06:06:28.861Z,100825.38
2022-10-22T06:08:59.691Z,100833.25
2022-10-22T06:11:27.980Z,100839.31
2022-10-22T06:13:57.915Z,100839.13
2022-10-22T06:16:24.762Z,100836.47
2022-10-22T06:18:51.294Z,100838.09
2022-10-22T06:21:17.841Z,100841.94
2022-10-22T06:23:44.643Z,100849.19
2022-10-22T06:26:11.423Z,100852.59
2022-10-22T06:28:38.595Z,100857.66
2022-10-22T06:31:05.954Z,100863.69
2022-10-22T06:33:34.297Z,100865.09
2022-10-22T06:36:15.672Z,100870.38
2022-10-22T06:38:42.687Z,100869.94
2022-10-22T06:41:11.898Z,100868.94
2022-10-22T06:43:38.505Z,100879.25
2022-10-22T06:46:09.607Z,100888.13
2022-10-22T06:48:37.821Z,100898.63
2022-10-22T06:51:07.256Z,100902.09
2022-10-22T06:53:34.337Z,100900.25
2022-10-22T06:56:12.241Z,100906.16
2022-10-22T06:58:39.405Z,100912.22
2022-10-22T07:01:14.959Z,100907.59
2022-10-22T07:03:42.232Z,100914.47
2022-10-22T07:06:15.196Z,100909.25
2022-10-22T07:08:43.115Z,100915.94
2022-10-22T07:11:38.701Z,100925.50
2022-10-22T07:14:05.345Z,100923.91
2022-10-22T07:16:32.601Z,100925.13
2022-10-22T07:19:01.327Z,100926.38
2022-10-22T07:21:28.006Z,100930.00
2022-10-22T07:23:55.064Z,100932.84
2022-10-22T07:26:22.130Z,100944.94
2022-10-22T07:28:48.748Z,100933.00
2022-10-22T07:31:16.348Z,100938.84
2022-10-22T07:33:43.092Z,100939.84
2022-10-22T07:36:17.664Z,100946.56
2022-10-22T07:38:49.541Z,100955.25
2022-10-22T07:41:17.017Z,100950.59
2022-10-22T07:43:44.486Z,100955.03
2022-10-22T07:46:11.606Z,100960.09
2022-10-22T07:48:41.610Z,100960.53
2022-10-22T07:51:08.363Z,100964.38
2022-10-22T07:53:35.067Z,100964.75
2022-10-22T07:56:01.638Z,100972.84
2022-10-22T07:58:28.279Z,100974.28
2022-10-22T08:00:56.702Z,100980.78
2022-10-22T08:03:23.492Z,100974.47
2022-10-22T08:05:51.658Z,100984.00
2022-10-22T08:08:19.107Z,100987.84
2022-10-22T08:10:48.006Z,100990.66
2022-10-22T08:13:14.977Z,100992.09
2022-10-22T08:18:10.135Z,101013.75
2022-10-22T08:20:36.713Z,101018.00
2022-10-22T08:23:03.294Z,101020.41
2022-10-22T08:25:29.977Z,101023.81
2022-10-22T08:27:56.522Z,101030.69
2022-10-22T08:30:23.216Z,101041.25
2022-10-22T08:32:53.075Z,101029.47
2022-10-22T08:35:21.322Z,101034.72
2022-10-22T08:37:47.875Z,101036.28
2022-10-22T08:40:40.761Z,101039.72
2022-10-22T08:43:22.148Z,101043.06
2022-10-22T08:46:17.163Z,101046.25
2022-10-22T08:48:51.322Z,101060.78
2022-10-22T08:51:23.348Z,101059.88
2022-10-22T08:54:05.672Z,101057.91
2022-10-22T08:56:35.483Z,101057.06
2022-10-22T08:59:21.187Z,101066.59
2022-10-22T09:01:51.448Z,101061.63
2022-10-22T09:04:27.264Z,101059.25
2022-10-22T09:06:57.429Z,101071.19
2022-10-22T09:09:27.738Z,101085.06
2022-10-22T09:11:57.757Z,101078.06
2022-10-22T09:14:26.106Z,101079.66
2022-10-22T09:16:55.706Z,101084.41
2022-10-22T09:19:46.827Z,101084.94
2022-10-22T09:22:40.143Z,101082.41
2022-10-22T09:25:23.934Z,101099.88
2022-10-22T09:27:50.690Z,101102.94
2022-10-22T09:30:20.486Z,101103.59
2022-10-22T09:32:54.739Z,101109.06
2022-10-22T09:35:24.290Z,101108.66
2022-10-22T09:37:54.124Z,101108.72
2022-10-22T09:40:21.162Z,101101.38
2022-10-22T09:42:48.347Z,101104.06
2022-10-22T09:45:20.047Z,101127.88
2022-10-22T09:48:01.634Z,101122.75
2022-10-22T09:50:39.454Z,101120.88
2022-10-22T09:53:15.049Z,101133.97
2022-10-22T09:55:43.018Z,101136.44
2022-10-22T09:58:13.950Z,101141.88
2022-10-22T10:00:45.309Z,101129.72
2022-10-22T10:03:22.569Z,101141.38
2022-10-22T10:05:53.694Z,101146.44
2022-10-22T10:08:20.575Z,101148.59
2022-10-22T10:10:51.304Z,101150.00
2022-10-22T10:13:27.719Z,101153.69
2022-10-22T10:16:06.517Z,101159.13
2022-10-22T10:18:58.254Z,101154.00
2022-10-22T10:21:45.601Z,101155.91
2022-10-22T10:24:47.422Z,101162.41
2022-10-22T10:27:27.914Z,101162.19
2022-10-22T10:30:01.018Z,101156.63
2022-10-22T10:33:11.367Z,101161.63
2022-10-22T10:35:40.968Z,101164.09
2022-10-22T10:38:17.025Z,101174.28
2022-10-22T10:40:53.338Z,101174.38
2022-10-22T10:43:30.817Z,101183.03
2022-10-22T10:46:11.046Z,101187.38
2022-10-22T10:49:20.652Z,101180.13
2022-10-22T10:52:09.622Z,101182.84
2022-10-22T10:55:01.512Z,101187.66
2022-10-22T10:57:50.047Z,101176.94
2022-10-22T11:00:21.625Z,101183.47
2022-10-22T11:03:04.925Z,101182.94
2022-10-22T11:05:34.465Z,101178.00
2022-10-22T11:08:17.307Z,101175.69
2022-10-22T11:10:46.671Z,101179.63
2022-10-22T11:13:36.940Z,101184.72
2022-10-22T11:16:22.068Z,101182.84
2022-10-22T11:18:58.344Z,101176.88
2022-10-22T11:21:34.021Z,101178.72
2022-10-22T11:24:35.606Z,101178.72
2022-10-22T11:27:42.160Z,101167.78
2022-10-22T11:30:13.798Z,101172.41
2022-10-22T11:32:44.056Z,101173.41
2022-10-22T11:35:17.142Z,101173.03
2022-10-22T11:37:46.870Z,101174.97
2022-10-22T11:40:21.321Z,101168.75
2022-10-22T11:42:49.987Z,101175.44
2022-10-22T11:45:25.881Z,101180.34
2022-10-22T11:48:10.944Z,101180.94
2022-10-22T11:50:46.267Z,101183.25
2022-10-22T11:53:12.938Z,101185.78
2022-10-22T11:55:49.083Z,101174.69
2022-10-22T11:58:30.485Z,101182.97
2022-10-22T12:01:03.376Z,101187.88
2022-10-22T12:03:33.067Z,101187.63
2022-10-22T12:06:12.512Z,101188.34
2022-10-22T12:08:43.443Z,101188.13
2022-10-22T12:11:10.040Z,101189.88
2022-10-22T12:14:12.259Z,101190.75
2022-10-22T12:16:57.548Z,101188.31
2022-10-22T12:19:29.171Z,101191.09
2022-10-22T12:22:11.471Z,101189.81
2022-10-22T12:24:40.875Z,101193.84
2022-10-22T12:27:30.035Z,101192.56
2022-10-22T12:29:59.252Z,101186.41
2022-10-22T12:32:37.300Z,101198.34
2022-10-22T12:35:25.612Z,101198.16
2022-10-22T12:37:56.227Z,101185.72
2022-10-22T12:40:28.684Z,101197.50
2022-10-22T12:43:01.139Z,101190.63
2022-10-22T12:45:30.710Z,101190.81
2022-10-22T12:48:20.561Z,101188.91
2022-10-22T12:50:51.764Z,101187.94
2022-10-22T12:53:30.890Z,101190.78
2022-10-22T12:56:02.560Z,101181.34
2022-10-22T12:58:37.363Z,101189.28
2022-10-22T13:01:04.870Z,101183.72
2022-10-22T13:03:39.774Z,101177.84
2022-10-22T13:06:24.682Z,101173.56
2022-10-22T13:09:26.893Z,101175.38
2022-10-22T13:12:01.586Z,101174.69
2022-10-22T13:14:30.915Z,101179.66
2022-10-22T13:17:18.717Z,101180.78
2022-10-22T13:19:54.894Z,101184.59
2022-10-22T13:22:37.014Z,101170.91
2022-10-22T13:25:30.878Z,101171.34
2022-10-22T13:28:18.382Z,101174.00
2022-10-22T13:30:56.904Z,101180.00
2022-10-22T13:33:29.549Z,101170.34
2022-10-22T13:35:56.917Z,101170.69
2022-10-22T13:38:25.457Z,101168.56
2022-10-22T13:40:52.649Z,101169.38
2022-10-22T13:43:19.716Z,101169.09
2022-10-22T13:45:48.795Z,101161.25
2022-10-22T13:48:19.255Z,101165.50
2022-10-22T13:50:46.360Z,101169.25
2022-10-22T13:53:20.750Z,101172.63
2022-10-22T13:55:47.822Z,101167.19
2022-10-22T14:00:47.805Z,101188.28
2022-10-22T14:03:17.359Z,101181.44
2022-10-22T14:05:47.133Z,101175.09
2022-10-22T14:08:20.015Z,101171.28
2022-10-22T14:10:46.894Z,101172.81
2022-10-22T14:13:15.834Z,101182.34
2022-10-22T14:15:45.315Z,101181.22
2022-10-22T14:18:24.102Z,101188.22
2022-10-22T14:20:54.007Z,101173.59
2022-10-22T14:23:23.263Z,101173.59
2022-10-22T14:25:53.336Z,101191.50
2022-10-22T14:28:20.340Z,101195.09
2022-10-22T14:30:47.675Z,101183.47
2022-10-22T14:33:27.220Z,101187.34
2022-10-22T14:35:59.892Z,101190.91
2022-10-22T14:38:27.398Z,101185.97
2022-10-22T14:40:54.243Z,101191.94
2022-10-22T14:43:23.022Z,101188.84
2022-10-22T14:45:49.835Z,101187.47
2022-10-22T14:48:17.308Z,101188.38
2022-10-22T14:50:46.106Z,101198.00
2022-10-22T14:53:13.742Z,101198.91
2022-10-22T14:55:42.922Z,101206.38
2022-10-22T14:58:12.889Z,101208.41
2022-10-22T15:00:43.461Z,101206.09
2022-10-22T15:03:11.571Z,101211.63
2022-10-22T15:05:46.461Z,101214.66
2022-10-22T15:08:14.330Z,101209.16
2022-10-22T15:10:41.520Z,101220.22
2022-10-22T15:13:08.311Z,101222.09
2022-10-22T15:15:39.457Z,101214.03
2022-10-22T15:18:07.272Z,101221.38
2022-10-22T15:20:33.802Z,101221.38
2022-10-22T15:23:00.505Z,101222.47
2022-10-22T15:25:27.075Z,101213.44
2022-10-22T15:27:57.573Z,101218.56
2022-10-22T15:30:28.914Z,101216.94
2022-10-22T15:32:55.486Z,101214.34
2022-10-22T15:35:24.354Z,101212.63
2022-10-22T15:37:53.764Z,101213.13
2022-10-22T15:40:20.387Z,101211.09
2022-10-22T15:42:46.947Z,101213.63
2022-10-22T15:45:13.869Z,101213.63
2022-10-22T15:47:40.836Z,101218.13
2022-10-22T15:50:08.132Z,101222.84
2022-10-22T15:52:34.626Z,101227.34
2022-10-22T15:55:04.255Z,101220.72
2022-10-22T15:57:31.196Z,101234.53
2022-10-22T15:59:57.694Z,101224.03
2022-10-22T16:02:24.306Z,101223.84
2022-10-22T16:04:50.835Z,101214.75
2022-10-22T16:07:19.801Z,101223.53
2022-10-22T16:09:49.015Z,101221.50
2022-10-22T16:12:17.274Z,101233.31
2022-10-22T16:14:44.539Z,101228.28
2022-10-22T16:17:11.192Z,101227.91
2022-10-22T16:19:37.857Z,101234.78
2022-10-22T16:22:04.423Z,101238.47
2022-10-22T16:24:31.156Z,101227.13
2022-10-22T16:26:58.431Z,101221.47
2022-10-22T16:29:25.039Z,101232.00
2022-10-22T16:31:52.056Z,101232.00
2022-10-22T16:34:18.664Z,101227.78
2022-10-22T16:36:45.269Z,101228.34
2022-10-22T16:39:11.862Z,101231.56
2022-10-22T16:41:38.733Z,101242.31
2022-10-22T16:44:08.694Z,101232.38
2022-10-22T16:46:38.505Z,101233.56
2022-10-22T16:49:06.005Z,101233.09
2022-10-22T16:51:32.825Z,101233.88
2022-10-22T16:54:04.534Z,101236.91
2022-10-22T16:56:36.354Z,101240.13
2022-10-22T16:59:03.371Z,101230.59
2022-10-22T17:01:30.214Z,101249.41
2022-10-22T17:03:59.301Z,101261.72
2022-10-22T17:06:26.227Z,101263.28
2022-10-22T17:08:53.156Z,101264.88
2022-10-22T17:11:22.781Z,101255.13
2022-10-22T17:13:52.618Z,101261.22
2022-10-22T17:16:21.941Z,101263.63
2022-10-22T17:18:48.681Z,101251.03
2022-10-22T17:21:16.525Z,101261.56
2022-10-22T17:23:43.410Z,101261.13
2022-10-22T17:26:18.394Z,101262.66
2022-10-22T17:28:45.074Z,101262.81
2022-10-22T17:31:20.493Z,101261.78
2022-10-22T17:33:48.883Z,101260.72
2022-10-22T17:36:17.555Z,101260.91
2022-10-22T17:38:47.805Z,101261.31
2022-10-22T17:41:18.022Z,101262.69
2022-10-22T17:46:21.792Z,101253.63
2022-10-22T17:48:53.902Z,101253.19
2022-10-22T17:51:21.849Z,101256.19
2022-10-22T17:53:51.705Z,101260.78
2022-10-22T17:56:21.714Z,101265.22
2022-10-22T17:58:49.091Z,101259.72
2022-10-22T18:01:22.046Z,101269.50
2022-10-22T18:03:49.339Z,101265.59
2022-10-22T18:06:16.305Z,101266.56
2022-10-22T18:08:43.156Z,101280.50
2022-10-22T18:11:17.084Z,101276.63
2022-10-22T18:13:43.877Z,101287.31
2022-10-22T18:16:10.534Z,101290.94
2022-10-22T18:18:37.285Z,101286.88
2022-10-22T18:21:05.216Z,101282.16
2022-10-22T18:23:36.258Z,101287.06
2022-10-22T18:26:04.934Z,101288.06
2022-10-22T18:28:31.530Z,101301.81
2022-10-22T18:30:58.226Z,101287.63
2022-10-22T18:33:25.691Z,101292.06
2022-10-22T18:36:07.403Z,101283.81
2022-10-22T18:38:35.333Z,101298.56
2022-10-22T18:41:02.518Z,101294.13
2022-10-22T18:43:37.474Z,101289.69
2022-10-22T18:46:08.228Z,101285.00
2022-10-22T18:48:38.615Z,101282.75
2022-10-22T18:51:12.721Z,101282.94
2022-10-22T18:53:41.607Z,101286.81
2022-10-22T18:56:12.380Z,101277.13
2022-10-22T18:58:46.146Z,101263.72
2022-10-22T19:01:14.982Z,101268.72
2022-10-22T19:03:41.947Z,101265.31
2022-10-22T19:06:08.618Z,101257.44
2022-10-22T19:08:36.888Z,101258.44
2022-10-22T19:11:12.023Z,101257.00
2022-10-22T19:13:39.015Z,101253.31
2022-10-22T19:16:07.575Z,101256.13
2022-10-22T19:18:35.855Z,101256.66
2022-10-22T19:21:02.833Z,101259.69
2022-10-22T19:23:30.604Z,101263.94
2022-10-22T19:26:08.888Z,101270.44
2022-10-22T19:28:36.099Z,101264.38
2022-10-22T19:31:09.163Z,101267.56
2022-10-22T19:33:37.205Z,101271.16
2022-10-22T19:36:12.443Z,101260.13
2022-10-22T19:38:44.804Z,101254.09
2022-10-22T19:41:13.746Z,101246.81
2022-10-22T19:43:41.767Z,101243.56
2022-10-22T19:46:09.394Z,101246.38
2022-10-22T19:48:37.112Z,101242.88
2022-10-22T19:51:06.515Z,101242.16
2022-10-22T19:53:34.313Z,101254.91
2022-10-22T19:56:01.989Z,101257.28
2022-10-22T19:58:28.999Z,101258.47
2022-10-22T20:00:55.667Z,101247.91
2022-10-22T20:03:23.096Z,101245.09
2022-10-22T20:05:52.765Z,101249.97
2022-10-22T20:08:19.335Z,101255.66
2022-10-22T20:10:48.752Z,101257.28
2022-10-22T20:13:15.345Z,101261.38
2022-10-22T20:15:42.646Z,101256.53
2022-10-22T20:18:09.136Z,101257.91
2022-10-22T20:20:38.096Z,101254.41
2022-10-22T20:23:04.734Z,101251.97
2022-10-22T20:25:31.430Z,101255.78
2022-10-22T20:27:58.266Z,101260.28
2022-10-22T20:30:24.787Z,101264.91
2022-10-22T20:32:51.319Z,101258.47
2022-10-22T20:35:18.133Z,101261.06
2022-10-22T20:37:44.743Z,101261.44
2022-10-22T20:40:11.402Z,101261.78
2022-10-22T20:42:37.989Z,101263.69
2022-10-22T20:45:05.357Z,101255.34
2022-10-22T20:47:44.337Z,101263.41
2022-10-22T20:50:21.183Z,101272.09
2022-10-22T20:52:47.903Z,101267.78
2022-10-22T20:57:46.624Z,101267.03
2022-10-22T21:00:13.674Z,101277.53
2022-10-22T21:02:40.683Z,101275.66
2022-10-22T21:05:07.807Z,101277.84
2022-10-22T21:07:34.329Z,101272.31
2022-10-22T21:10:00.871Z,101263.66
2022-10-22T21:12:27.414Z,101262.91
2022-10-22T21:14:53.934Z,101273.50
2022-10-22T21:17:20.503Z,101266.00
2022-10-22T21:19:47.498Z,101262.75
2022-10-22T21:22:14.491Z,101272.97
2022-10-22T21:24:41.140Z,101274.03
2022-10-22T21:27:07.954Z,101274.63
2022-10-22T21:29:34.641Z,101270.41
2022-10-22T21:32:01.195Z,101273.03
2022-10-22T21:34:27.842Z,101273.28
2022-10-22T21:36:54.501Z,101275.47
2022-10-22T21:39:21.061Z,101276.28
2022-10-22T21:41:47.653Z,101271.16
2022-10-22T21:44:14.178Z,101278.91
2022-10-22T21:46:40.924Z,101278.50
2022-10-22T21:49:07.457Z,101260.91
2022-10-22T21:51:35.761Z,101285.66
2022-10-22T21:54:02.319Z,101282.41
2022-10-22T21:56:32.754Z,101278.78
2022-10-22T21:58:59.590Z,101271.28
2022-10-22T22:01:26.736Z,101275.16
2022-10-22T22:03:53.551Z,101266.69
2022-10-22T22:06:23.180Z,101269.66
2022-10-22T22:08:51.722Z,101266.69
2022-10-22T22:11:22.516Z,101266.22
2022-10-22T22:13:49.555Z,101267.03
2022-10-22T22:16:22.400Z,101258.56
2022-10-22T22:18:52.263Z,101258.16
2022-10-22T22:21:22.036Z,101249.66
2022-10-22T22:23:50.342Z,101248.00
2022-10-22T22:26:25.235Z,101250.97
2022-10-22T22:28:55.740Z,101256.41
2022-10-22T22:31:24.987Z,101250.69
2022-10-22T22:33:57.443Z,101248.53
2022-10-22T22:36:23.990Z,101247.09
2022-10-22T22:38:55.166Z,101248.34
2022-10-22T22:41:21.959Z,101247.28
2022-10-22T22:43:48.500Z,101232.00
2022-10-22T22:46:15.147Z,101237.97
2022-10-22T22:48:41.797Z,101241.03
2022-10-22T22:51:08.585Z,101226.03
2022-10-22T22:53:35.428Z,101238.59
2022-10-22T22:56:22.721Z,101238.53
2022-10-22T22:58:49.734Z,101237.25
2022-10-22T23:01:21.067Z,101250.47
2022-10-22T23:03:52.753Z,101245.06
2022-10-22T23:06:19.473Z,101247.13
2022-10-22T23:08:50.795Z,101232.16
2022-10-22T23:11:17.764Z,101236.13
2022-10-22T23:13:45.968Z,101228.16
2022-10-22T23:16:19.407Z,101228.69
2022-10-22T23:18:47.414Z,101217.13
2022-10-22T23:21:20.347Z,101215.22
2022-10-22T23:23:49.888Z,101219.31
2022-10-22T23:26:19.758Z,101213.44
2022-10-22T23:28:46.446Z,101208.38
2022-10-22T23:31:15.762Z,101194.84
2022-10-22T23:33:43.196Z,101203.13
2022-10-22T23:36:11.428Z,101196.91
2022-10-22T23:38:39.588Z,101186.94
2022-10-22T23:41:06.868Z,101185.59
2022-10-22T23:43:36.231Z,101186.84
2022-10-22T23:46:04.357Z,101192.47
2022-10-22T23:48:31.067Z,101192.28
2022-10-22T23:50:57.990Z,101205.94
2022-10-22T23:53:24.969Z,101193.03
2022-10-22T23:55:51.453Z,101191.09
2022-10-22T23:58:18.100Z,101185.50
